Time,TemperatureF,DewpointF,PressureIn,WindDirection,WindDirectionDegrees,WindSpeedMPH,WindSpeedGustMPH,Humidity,HourlyPrecipIn,Conditions,Clouds,dailyrainin,SoftwareType,DateUTC
2013-02-25 00:00:00,29.1,25.4,30.02,North,5,1.0,1.0,86,0.00,,,0.00,Wunderground v.1.15,2013-02-25 07:00:00,
2013-02-25 00:10:00,29.2,25.5,30.02,North,5,0.0,0.0,86,0.00,,,0.00,Wunderground v.1.15,2013-02-25 07:10:00,
2013-02-25 00:20:00,29.2,25.3,30.02,North,5,0.0,1.0,85,0.00,,,0.00,Wunderground v.1.15,2013-02-25 07:20:00,
2013-02-25 00:30:00,29.2,25.3,30.03,North,5,0.0,0.0,85,0.00,,,0.00,Wunderground v.1.15,2013-02-25 07:30:00,
2013-02-25 00:40:00,29.8,25.0,30.03,North,5,0.0,0.0,82,0.00,,,0.00,Wunderground v.1.15,2013-02-25 07:40:00,
2013-02-25 00:50:00,30.5,25.1,30.04,North,5,0.0,0.0,80,0.00,,,0.00,Wunderground v.1.15,2013-02-25 07:50:00,
2013-02-25 01:00:00,30.5,25.1,30.04,North,5,0.0,0.0,80,0.00,,,0.00,Wunderground v.1.15,2013-02-25 08:00:00,
2013-02-25 01:10:00,30.5,24.5,30.04,North,5,0.0,7.0,78,0.00,,,0.00,Wunderground v.1.15,2013-02-25 08:10:00,
2013-02-25 01:20:00,30.6,23.9,30.05,North,5,0.0,7.0,76,0.00,,,0.00,Wunderground v.1.15,2013-02-25 08:20:00,
2013-02-25 01:30:00,30.8,22.2,30.05,NNW,338,1.0,7.0,70,0.00,,,0.00,Wunderground v.1.15,2013-02-25 08:30:00,
2013-02-25 01:40:00,31.3,20.9,30.06,NW,325,2.0,2.0,65,0.00,,,0.00,Wunderground v.1.15,2013-02-25 08:40:00,
2013-02-25 01:50:00,31.3,19.8,30.06,NW,325,1.0,7.0,62,0.00,,,0.00,Wunderground v.1.15,2013-02-25 08:50:00,
2013-02-25 02:00:00,31.4,19.5,30.06,NW,325,1.0,1.0,61,0.00,,,0.00,Wunderground v.1.15,2013-02-25 09:00:00,
2013-02-25 02:10:00,31.4,18.7,30.07,NW,324,2.0,7.0,59,0.00,,,0.00,Wunderground v.1.15,2013-02-25 09:10:00,
2013-02-25 02:20:00,31.6,20.1,30.08,North,5,2.0,2.0,62,0.00,,,0.00,Wunderground v.1.15,2013-02-25 09:20:00,
2013-02-25 02:30:00,31.5,20.0,30.08,North,5,1.0,7.0,62,0.00,,,0.00,Wunderground v.1.15,2013-02-25 09:30:00,
2013-02-25 02:40:00,31.4,19.1,30.08,North,360,2.0,7.0,60,0.00,,,0.00,Wunderground v.1.15,2013-02-25 09:40:00,
2013-02-25 02:50:00,31.3,19.4,30.09,North,360,2.0,7.0,61,0.00,,,0.00,Wunderground v.1.15,2013-02-25 09:50:00,
2013-02-25 03:00:00,31.3,19.0,30.09,North,360,2.0,2.0,60,0.00,,,0.00,Wunderground v.1.15,2013-02-25 10:00:00,
2013-02-25 03:10:00,31.1,18.8,30.09,North,360,1.0,7.0,60,0.00,,,0.00,Wunderground v.1.15,2013-02-25 10:10:00,
2013-02-25 03:20:00,30.8,18.1,30.09,North,360,2.0,7.0,59,0.00,,,0.00,Wunderground v.1.15,2013-02-25 10:20:00,
2013-02-25 03:30:00,30.6,18.0,30.09,North,5,3.0,7.0,59,0.00,,,0.00,Wunderground v.1.15,2013-02-25 10:30:00,
2013-02-25 03:40:00,30.3,17.7,30.09,North,5,4.0,7.0,59,0.00,,,0.00,Wunderground v.1.15,2013-02-25 10:40:00,
2013-02-25 03:50:00,30.3,17.3,30.09,NW,323,3.0,3.0,58,0.00,,,0.00,Wunderground v.1.15,2013-02-25 10:50:00,
2013-02-25 04:00:00,30.2,17.6,30.10,NW,323,2.0,2.0,59,0.00,,,0.00,Wunderground v.1.15,2013-02-25 11:00:00,
2013-02-25 04:10:00,30.0,17.0,30.11,NW,323,2.0,7.0,58,0.00,,,0.00,Wunderground v.1.15,2013-02-25 11:10:00,
2013-02-25 04:20:00,29.8,16.8,30.11,NW,322,3.0,3.0,58,0.00,,,0.00,Wunderground v.1.15,2013-02-25 11:20:00,
2013-02-25 04:30:00,29.4,16.4,30.12,NNW,327,3.0,7.0,58,0.00,,,0.00,Wunderground v.1.15,2013-02-25 11:30:00,
2013-02-25 04:40:00,29.0,16.1,30.12,NW,313,3.0,3.0,58,0.00,,,0.00,Wunderground v.1.15,2013-02-25 11:40:00,
2013-02-25 04:50:00,28.8,16.3,30.13,NW,315,2.0,2.0,59,0.00,,,0.00,Wunderground v.1.15,2013-02-25 11:50:00,
2013-02-25 05:00:00,28.6,16.1,30.14,NW,323,3.0,3.0,59,0.00,,,0.00,Wunderground v.1.15,2013-02-25 12:00:00,
2013-02-25 05:10:00,28.3,15.8,30.14,NW,323,2.0,7.0,59,0.00,,,0.00,Wunderground v.1.15,2013-02-25 12:10:00,
2013-02-25 05:20:00,28.4,15.9,30.14,NW,322,3.0,7.0,59,0.00,,,0.00,Wunderground v.1.15,2013-02-25 12:20:00,
2013-02-25 05:30:00,28.1,15.6,30.15,NW,322,1.0,1.0,59,0.00,,,0.00,Wunderground v.1.15,2013-02-25 12:30:00,
2013-02-25 05:40:00,27.6,15.9,30.15,NW,322,0.0,7.0,61,0.00,,,0.00,Wunderground v.1.15,2013-02-25 12:40:00,
2013-02-25 05:50:00,27.3,15.6,30.16,NW,322,1.0,7.0,61,0.00,,,0.00,Wunderground v.1.15,2013-02-25 12:50:00,
2013-02-25 06:00:00,27.5,15.8,30.16,NW,323,1.0,1.0,61,0.00,,,0.00,Wunderground v.1.15,2013-02-25 13:00:00,
2013-02-25 06:10:00,27.4,16.4,30.17,NW,323,1.0,7.0,63,0.00,,,0.00,Wunderground v.1.15,2013-02-25 13:10:00,
2013-02-25 06:20:00,27.5,15.8,30.17,NNW,331,4.0,4.0,61,0.00,,,0.00,Wunderground v.1.15,2013-02-25 13:20:00,
2013-02-25 06:30:00,27.4,15.3,30.17,NNW,331,3.0,7.0,60,0.00,,,0.00,Wunderground v.1.15,2013-02-25 13:30:00,
2013-02-25 06:40:00,27.4,15.3,30.18,North,355,2.0,2.0,60,0.00,,,0.00,Wunderground v.1.15,2013-02-25 13:40:00,
2013-02-25 06:50:00,27.4,15.3,30.19,NNE,14,5.0,5.0,60,0.00,,,0.00,Wunderground v.1.15,2013-02-25 13:50:00,
2013-02-25 07:00:00,27.0,15.7,30.19,North,10,4.0,4.0,62,0.00,,,0.00,Wunderground v.1.15,2013-02-25 14:00:00,
2013-02-25 07:10:00,27.4,15.7,30.19,NNW,344,3.0,3.0,61,0.00,,,0.00,Wunderground v.1.15,2013-02-25 14:10:00,
2013-02-25 07:20:00,28.2,15.7,30.20,North,355,3.0,3.0,59,0.00,,,0.00,Wunderground v.1.15,2013-02-25 14:20:00,
2013-02-25 07:30:00,28.7,16.2,30.21,NNW,348,2.0,7.0,59,0.00,,,0.00,Wunderground v.1.15,2013-02-25 14:30:00,
2013-02-25 07:40:00,29.1,16.1,30.21,NNW,346,2.0,2.0,58,0.00,,,0.00,Wunderground v.1.15,2013-02-25 14:40:00,
2013-02-25 07:50:00,29.5,16.5,30.22,NNW,328,3.0,3.0,58,0.00,,,0.00,Wunderground v.1.15,2013-02-25 14:50:00,
2013-02-25 08:00:00,29.9,16.1,30.23,NW,320,3.0,7.0,56,0.00,,,0.00,Wunderground v.1.15,2013-02-25 15:00:00,
2013-02-25 08:10:00,30.3,16.5,30.23,NNW,332,3.0,3.0,56,0.00,,,0.00,Wunderground v.1.15,2013-02-25 15:10:00,
2013-02-25 08:20:00,30.5,16.7,30.23,NNW,341,3.0,3.0,56,0.00,,,0.00,Wunderground v.1.15,2013-02-25 15:20:00,
2013-02-25 08:30:00,30.7,16.0,30.23,North,360,4.0,8.0,54,0.00,,,0.00,Wunderground v.1.15,2013-02-25 15:30:00,
2013-02-25 08:40:00,30.8,16.9,30.23,North,5,4.0,4.0,56,0.00,,,0.00,Wunderground v.1.15,2013-02-25 15:40:00,
2013-02-25 08:50:00,31.8,17.0,30.24,NNW,342,2.0,7.0,54,0.00,,,0.00,Wunderground v.1.15,2013-02-25 15:50:00,
2013-02-25 09:00:00,32.6,16.9,30.24,NW,319,3.0,3.0,52,0.00,,,0.00,Wunderground v.1.15,2013-02-25 16:00:00,
2013-02-25 09:10:00,33.5,16.4,30.24,NW,320,4.0,7.0,49,0.00,,,0.00,Wunderground v.1.15,2013-02-25 16:10:00,
2013-02-25 09:20:00,33.5,16.8,30.24,NNE,32,4.0,7.0,50,0.00,,,0.00,Wunderground v.1.15,2013-02-25 16:20:00,
2013-02-25 09:30:00,32.4,16.3,30.24,NNE,28,6.0,7.0,51,0.00,,,0.00,Wunderground v.1.15,2013-02-25 16:30:00,
2013-02-25 09:40:00,32.8,16.6,30.24,North,355,5.0,7.0,51,0.00,,,0.00,Wunderground v.1.15,2013-02-25 16:40:00,
2013-02-25 09:50:00,33.2,17.0,30.24,North,10,5.0,5.0,51,0.00,,,0.00,Wunderground v.1.15,2013-02-25 16:50:00,
2013-02-25 10:00:00,33.3,17.1,30.24,NNE,28,5.0,5.0,51,0.00,,,0.01,Wunderground v.1.15,2013-02-25 17:00:00,
2013-02-25 10:10:00,34.3,18.9,30.24,North,351,2.0,2.0,53,0.00,,,0.01,Wunderground v.1.15,2013-02-25 17:10:00,
2013-02-25 10:20:00,34.9,18.1,30.24,North,5,2.0,7.0,50,0.00,,,0.01,Wunderground v.1.15,2013-02-25 17:20:00,
2013-02-25 10:30:00,35.7,18.9,30.24,NNE,27,2.0,7.0,50,0.00,,,0.01,Wunderground v.1.15,2013-02-25 17:30:00,
2013-02-25 10:40:00,36.5,17.7,30.24,NNE,21,2.0,2.0,46,0.00,,,0.01,Wunderground v.1.15,2013-02-25 17:40:00,
2013-02-25 10:50:00,37.1,18.2,30.24,North,355,2.0,7.0,46,0.00,,,0.01,Wunderground v.1.15,2013-02-25 17:50:00,
2013-02-25 11:00:00,38.3,18.8,30.23,NNW,331,4.0,4.0,45,0.00,,,0.01,Wunderground v.1.15,2013-02-25 18:00:00,
2013-02-25 11:10:00,38.9,16.0,30.22,NW,324,4.0,10.0,39,0.00,,,0.01,Wunderground v.1.15,2013-02-25 18:10:00,
2013-02-25 11:20:00,39.5,16.0,30.22,NNW,348,4.0,4.0,38,0.00,,,0.01,Wunderground v.1.15,2013-02-25 18:20:00,
2013-02-25 11:30:00,40.6,15.7,30.21,NNW,333,4.0,4.0,36,0.00,,,0.01,Wunderground v.1.15,2013-02-25 18:30:00,
2013-02-25 11:40:00,41.1,13.4,30.20,NW,307,3.0,10.0,32,0.00,,,0.01,Wunderground v.1.15,2013-02-25 18:40:00,
2013-02-25 11:50:00,42.1,13.6,30.19,NNW,346,5.0,5.0,31,0.00,,,0.01,Wunderground v.1.15,2013-02-25 18:50:00,
2013-02-25 12:00:00,42.6,14.0,30.19,NW,317,5.0,12.0,31,0.00,,,0.01,Wunderground v.1.15,2013-02-25 19:00:00,
2013-02-25 12:10:00,43.1,12.9,30.18,North,350,6.0,6.0,29,0.00,,,0.01,Wunderground v.1.15,2013-02-25 19:10:00,
2013-02-25 12:20:00,43.8,12.8,30.17,NW,318,4.0,8.0,28,0.00,,,0.01,Wunderground v.1.15,2013-02-25 19:20:00,
2013-02-25 12:30:00,45.0,13.0,30.16,North,350,4.0,7.0,27,0.00,,,0.01,Wunderground v.1.15,2013-02-25 19:30:00,
2013-02-25 12:40:00,44.6,10.9,30.15,NW,314,7.0,7.0,25,0.00,,,0.01,Wunderground v.1.15,2013-02-25 19:40:00,
2013-02-25 12:50:00,45.8,11.9,30.15,WSW,247,5.0,5.0,25,0.00,,,0.01,Wunderground v.1.15,2013-02-25 19:50:00,
2013-02-25 13:00:00,46.7,10.8,30.14,WSW,256,4.0,7.0,23,0.00,,,0.01,Wunderground v.1.15,2013-02-25 20:00:00,
2013-02-25 13:10:00,46.8,8.8,30.14,NW,316,4.0,8.0,21,0.00,,,0.01,Wunderground v.1.15,2013-02-25 20:10:00,
2013-02-25 13:20:00,46.4,9.6,30.13,NW,324,7.0,7.0,22,0.00,,,0.01,Wunderground v.1.15,2013-02-25 20:20:00,
2013-02-25 13:30:00,47.2,8.1,30.13,West,269,6.0,6.0,20,0.00,,,0.01,Wunderground v.1.15,2013-02-25 20:30:00,
2013-02-25 13:40:00,48.1,8.8,30.12,North,350,5.0,7.0,20,0.00,,,0.01,Wunderground v.1.15,2013-02-25 20:40:00,
2013-02-25 13:50:00,48.2,7.8,30.11,NW,322,5.0,5.0,19,0.00,,,0.01,Wunderground v.1.15,2013-02-25 20:50:00,
2013-02-25 14:00:00,48.2,6.6,30.11,WNW,294,5.0,7.0,18,0.00,,,0.01,Wunderground v.1.15,2013-02-25 21:00:00,
2013-02-25 14:10:00,47.6,6.1,30.10,NNW,327,8.0,8.0,18,0.00,,,0.01,Wunderground v.1.15,2013-02-25 21:10:00,
2013-02-25 14:20:00,48.1,6.5,30.10,WNW,302,7.0,7.0,18,0.00,,,0.01,Wunderground v.1.15,2013-02-25 21:20:00,
2013-02-25 14:30:00,48.5,6.8,30.09,NW,319,6.0,6.0,18,0.00,,,0.01,Wunderground v.1.15,2013-02-25 21:30:00,
2013-02-25 14:40:00,49.3,6.2,30.09,NNW,331,6.0,6.0,17,0.00,,,0.01,Wunderground v.1.15,2013-02-25 21:40:00,
2013-02-25 14:50:00,49.3,3.5,30.09,West,275,7.0,7.0,15,0.00,,,0.01,Wunderground v.1.15,2013-02-25 21:50:00,
2013-02-25 15:00:00,49.5,3.7,30.09,NNW,327,6.0,9.0,15,0.00,,,0.01,Wunderground v.1.15,2013-02-25 22:00:00,
2013-02-25 15:10:00,49.3,6.2,30.09,NNW,335,6.0,6.0,17,0.00,,,0.01,Wunderground v.1.15,2013-02-25 22:10:00,
2013-02-25 15:20:00,49.3,7.5,30.09,West,267,7.0,8.0,18,0.00,,,0.01,Wunderground v.1.15,2013-02-25 22:20:00,
2013-02-25 15:30:00,49.7,6.6,30.08,West,281,6.0,7.0,17,0.00,,,0.01,Wunderground v.1.15,2013-02-25 22:30:00,
2013-02-25 15:40:00,49.2,7.4,30.08,SW,236,6.0,9.0,18,0.00,,,0.01,Wunderground v.1.15,2013-02-25 22:40:00,
2013-02-25 15:50:00,49.7,5.2,30.08,NW,318,6.0,6.0,16,0.00,,,0.01,Wunderground v.1.15,2013-02-25 22:50:00,
2013-02-25 16:00:00,49.5,6.4,30.08,NW,318,5.0,7.0,17,0.00,,,0.01,Wunderground v.1.15,2013-02-25 23:00:00,
2013-02-25 16:10:00,50.0,6.8,30.08,WNW,292,3.0,3.0,17,0.00,,,0.01,Wunderground v.1.15,2013-02-25 23:10:00,
2013-02-25 16:20:00,49.5,5.1,30.07,WSW,245,5.0,9.0,16,0.00,,,0.01,Wunderground v.1.15,2013-02-25 23:20:00,
2013-02-25 16:30:00,49.3,4.9,30.07,NW,324,6.0,6.0,16,0.00,,,0.01,Wunderground v.1.15,2013-02-25 23:30:00,
2013-02-25 16:40:00,49.1,4.8,30.07,NW,314,7.0,7.0,16,0.00,,,0.01,Wunderground v.1.15,2013-02-25 23:40:00,
2013-02-25 16:50:00,49.2,3.4,30.07,West,279,5.0,5.0,15,0.00,,,0.01,Wunderground v.1.15,2013-02-25 23:50:00,
2013-02-25 17:00:00,49.2,4.8,30.07,NNW,339,5.0,5.0,16,0.00,,,0.01,Wunderground v.1.15,2013-02-26 00:00:00,
2013-02-25 17:10:00,49.1,4.8,30.07,NW,309,4.0,7.0,16,0.00,,,0.01,Wunderground v.1.15,2013-02-26 00:10:00,
2013-02-25 17:20:00,48.8,4.5,30.06,NNW,329,5.0,10.0,16,0.00,,,0.01,Wunderground v.1.15,2013-02-26 00:20:00,
2013-02-25 17:30:00,48.7,3.0,30.06,NW,311,5.0,5.0,15,0.00,,,0.01,Wunderground v.1.15,2013-02-26 00:30:00,
2013-02-25 17:40:00,48.3,1.2,30.07,NNW,338,5.0,7.0,14,0.00,,,0.01,Wunderground v.1.15,2013-02-26 00:40:00,
2013-02-25 17:50:00,47.7,2.2,30.07,NW,315,5.0,5.0,15,0.00,,,0.01,Wunderground v.1.15,2013-02-26 00:50:00,
2013-02-25 18:00:00,47.0,1.6,30.07,NW,320,7.0,7.0,15,0.00,,,0.01,Wunderground v.1.15,2013-02-26 01:00:00,
2013-02-25 18:10:00,46.4,2.6,30.07,NW,315,6.0,7.0,16,0.00,,,0.01,Wunderground v.1.15,2013-02-26 01:10:00,
2013-02-25 18:20:00,45.9,2.1,30.07,NW,311,6.0,7.0,16,0.00,,,0.01,Wunderground v.1.15,2013-02-26 01:20:00,
2013-02-25 18:30:00,45.4,3.0,30.07,NW,309,4.0,8.0,17,0.00,,,0.01,Wunderground v.1.15,2013-02-26 01:30:00,
2013-02-25 18:40:00,45.0,2.7,30.07,NW,317,5.0,5.0,17,0.00,,,0.01,Wunderground v.1.15,2013-02-26 01:40:00,
2013-02-25 18:50:00,44.7,2.5,30.08,NW,323,6.0,7.0,17,0.00,,,0.01,Wunderground v.1.15,2013-02-26 01:50:00,
2013-02-25 19:00:00,44.5,3.5,30.08,NNW,327,5.0,5.0,18,0.00,,,0.01,Wunderground v.1.15,2013-02-26 02:00:00,
2013-02-25 19:10:00,44.0,4.3,30.08,NW,323,2.0,2.0,19,0.00,,,0.01,Wunderground v.1.15,2013-02-26 02:10:00,
2013-02-25 19:20:00,43.5,5.0,30.08,NNW,337,1.0,7.0,20,0.00,,,0.01,Wunderground v.1.15,2013-02-26 02:20:00,
2013-02-25 19:30:00,43.0,6.7,30.08,NNW,348,2.0,7.0,22,0.00,,,0.01,Wunderground v.1.15,2013-02-26 02:30:00,
2013-02-25 19:40:00,42.4,7.2,30.09,North,355,1.0,1.0,23,0.00,,,0.01,Wunderground v.1.15,2013-02-26 02:40:00,
2013-02-25 19:50:00,41.9,6.7,30.08,NNW,347,1.0,7.0,23,0.00,,,0.01,Wunderground v.1.15,2013-02-26 02:50:00,
2013-02-25 20:00:00,41.8,6.6,30.08,NNW,333,3.0,3.0,23,0.00,,,0.01,Wunderground v.1.15,2013-02-26 03:00:00,
2013-02-25 20:10:00,41.5,6.4,30.07,NNW,340,3.0,7.0,23,0.00,,,0.01,Wunderground v.1.15,2013-02-26 03:10:00,
2013-02-25 20:20:00,41.4,7.2,30.07,NNW,338,2.0,2.0,24,0.00,,,0.01,Wunderground v.1.15,2013-02-26 03:20:00,
2013-02-25 20:30:00,41.3,7.2,30.08,NNW,341,1.0,7.0,24,0.00,,,0.01,Wunderground v.1.15,2013-02-26 03:30:00,
2013-02-25 20:40:00,41.1,7.0,30.09,NNW,341,1.0,1.0,24,0.00,,,0.01,Wunderground v.1.15,2013-02-26 03:40:00,
2013-02-25 20:50:00,41.1,7.0,30.09,NNW,341,1.0,7.0,24,0.00,,,0.01,Wunderground v.1.15,2013-02-26 03:50:00,
2013-02-25 21:00:00,40.4,6.4,30.09,NNW,331,3.0,3.0,24,0.00,,,0.01,Wunderground v.1.15,2013-02-26 04:00:00,
2013-02-25 21:10:00,39.7,6.7,30.09,NNW,331,1.0,1.0,25,0.00,,,0.01,Wunderground v.1.15,2013-02-26 04:10:00,
2013-02-25 21:20:00,39.1,6.2,30.10,NNW,331,1.0,1.0,25,0.00,,,0.01,Wunderground v.1.15,2013-02-26 04:20:00,
2013-02-25 21:30:00,38.9,7.7,30.10,NNW,331,1.0,7.0,27,0.00,,,0.01,Wunderground v.1.15,2013-02-26 04:30:00,
2013-02-25 21:40:00,39.1,7.9,30.10,NNW,331,2.0,7.0,27,0.00,,,0.01,Wunderground v.1.15,2013-02-26 04:40:00,
2013-02-25 21:50:00,39.1,7.9,30.09,NNW,331,1.0,7.0,27,0.00,,,0.01,Wunderground v.1.15,2013-02-26 04:50:00,
2013-02-25 22:00:00,38.9,8.5,30.09,NNW,330,0.0,7.0,28,0.00,,,0.01,Wunderground v.1.15,2013-02-26 05:00:00,
2013-02-25 22:10:00,38.3,8.0,30.09,NNW,331,0.0,7.0,28,0.00,,,0.01,Wunderground v.1.15,2013-02-26 05:10:00,
2013-02-25 22:20:00,37.7,9.0,30.09,NNW,331,0.0,7.0,30,0.00,,,0.01,Wunderground v.1.15,2013-02-26 05:20:00,
2013-02-25 22:30:00,36.5,8.7,30.09,NNW,331,1.0,1.0,31,0.00,,,0.01,Wunderground v.1.15,2013-02-26 05:30:00,
2013-02-25 22:40:00,36.3,8.5,30.08,NNW,331,0.0,7.0,31,0.00,,,0.01,Wunderground v.1.15,2013-02-26 05:40:00,
2013-02-25 22:50:00,35.4,9.1,30.09,NNW,331,0.0,7.0,33,0.00,,,0.01,Wunderground v.1.15,2013-02-26 05:50:00,
2013-02-25 23:00:00,34.8,9.9,30.08,NNW,331,0.0,7.0,35,0.00,,,0.01,Wunderground v.1.15,2013-02-26 06:00:00,
2013-02-25 23:10:00,34.1,9.3,30.08,NNW,331,0.0,7.0,35,0.00,,,0.01,Wunderground v.1.15,2013-02-26 06:10:00,
2013-02-25 23:20:00,33.5,10.0,30.07,NNW,331,0.0,7.0,37,0.00,,,0.01,Wunderground v.1.15,2013-02-26 06:20:00,
2013-02-25 23:30:00,33.2,9.7,30.07,NNW,330,0.0,7.0,37,0.00,,,0.01,Wunderground v.1.15,2013-02-26 06:30:00,
2013-02-25 23:40:00,32.5,10.3,30.07,NNW,331,0.0,7.0,39,0.00,,,0.01,Wunderground v.1.15,2013-02-26 06:40:00,
2013-02-25 23:50:00,31.9,10.3,30.07,NNW,331,0.0,7.0,40,0.00,,,0.01,Wunderground v.1.15,2013-02-26 06:50:00,